Time;durP1;ratioP1;P1;durP2;ratioP2;P2;SDS_P1;SDS_P2;PMS_P1;PMS_P2;Temp;Humidity;BMP_temperature;BMP_pressure;BME280_temperature;BME280_humidity;BME280_pressure;Samples;Min_cycle;Max_cycle;Signal;HPM_P1;HPM_P2
2021/04/26 00:08:04;;;;;;;14.18;10.30;;;;;;;2.92;100.00;101099.91;1692613;84;21164;-91
2021/04/26 00:11:18;;;;;;;18.67;10.93;;;;;;;2.94;100.00;101100.70;1699402;84;21093;-91
2021/04/26 00:17:52;;;;;;;14.13;10.20;;;;;;;2.91;100.00;101094.83;1691954;83;21161;-90
2021/04/26 00:20:48;;;;;;;12.23;9.30;;;;;;;2.79;100.00;101096.09;1702600;84;21388;-91
2021/04/26 00:27:07;;;;;;;11.28;8.38;;;;;;;2.76;100.00;101092.33;1707377;81;21195;-91
2021/04/26 00:37:03;;;;;;;13.53;9.38;;;;;;;2.80;100.00;101099.06;1699851;82;21615;-90
2021/04/26 00:39:52;;;;;;;13.53;10.13;;;;;;;2.72;100.00;101088.20;1705932;83;21165;-90
2021/04/26 00:46:24;;;;;;;13.53;9.15;;;;;;;2.66;100.00;101091.82;1696622;83;21185;-90
2021/04/26 00:49:22;;;;;;;15.03;9.55;;;;;;;2.67;100.00;101085.33;1706230;83;21131;-90
2021/04/26 00:56:13;;;;;;;12.43;9.28;;;;;;;2.69;100.00;101080.13;1709398;81;21180;-90
2021/04/26 00:59:35;;;;;;;13.75;10.05;;;;;;;2.66;100.00;101069.96;1750627;80;21099;-91
2021/04/26 01:06:27;;;;;;;14.63;10.90;;;;;;;2.57;100.00;101061.27;1702633;83;21174;-89
2021/04/26 01:13:46;;;;;;;15.88;10.32;;;;;;;2.53;100.00;101060.08;1696821;81;21138;-91
2021/04/26 01:23:50;;;;;;;16.32;10.88;;;;;;;2.46;100.00;101062.47;1703127;82;21210;-91
2021/04/26 01:26:38;;;;;;;12.33;9.55;;;;;;;2.39;100.00;101059.72;1700708;83;21433;-92
2021/04/26 01:37:25;;;;;;;14.07;10.70;;;;;;;2.35;100.00;101055.13;1697868;82;21581;-91
2021/04/26 01:40:13;;;;;;;18.13;12.30;;;;;;;2.33;100.00;101050.94;1663494;84;21140;-91
2021/04/26 01:50:12;;;;;;;17.50;11.75;;;;;;;2.32;100.00;101048.80;1708632;83;21165;-95
2021/04/26 01:57:05;;;;;;;17.42;11.78;;;;;;;2.34;100.00;101047.48;1711479;80;21167;-95
2021/04/26 01:59:41;;;;;;;18.00;12.18;;;;;;;2.34;100.00;101048.77;1752988;80;21153;-95
2021/04/26 02:17:31;;;;;;;17.75;12.45;;;;;;;2.27;100.00;101035.27;1715228;83;21190;-95
2021/04/26 02:31:27;;;;;;;17.87;11.80;;;;;;;2.19;100.00;101029.55;1702285;81;21182;-95
2021/04/26 02:38:04;;;;;;;13.62;10.23;;;;;;;2.11;100.00;101018.26;1675618;84;21169;-94
2021/04/26 02:41:21;;;;;;;17.70;11.30;;;;;;;2.12;100.00;101023.80;1721392;81;21139;-94
2021/04/26 02:47:57;;;;;;;16.00;11.57;;;;;;;2.14;100.00;101019.42;1698673;82;21588;-93
2021/04/26 02:54:21;;;;;;;17.32;11.90;;;;;;;2.15;100.00;101010.83;1729138;82;21173;-94
2021/04/26 03:00:53;;;;;;;15.68;11.63;;;;;;;2.19;100.00;101020.55;1703760;82;21160;-94
2021/04/26 03:03:54;;;;;;;15.38;12.15;;;;;;;2.28;100.00;101015.56;1718156;83;21135;-94
2021/04/26 03:06:29;;;;;;;17.05;11.43;;;;;;;2.32;100.00;101015.84;1701429;82;21248;-94
2021/04/26 03:09:09;;;;;;;18.15;12.85;;;;;;;2.35;100.00;101014.00;1725032;82;21659;-94
2021/04/26 03:39:13;;;;;;;27.48;15.88;;;;;;;3.19;100.00;101003.31;1733024;80;21214;-89
2021/04/26 03:41:42;;;;;;;22.60;16.15;;;;;;;3.31;100.00;101006.69;1727784;82;22118;-89
2021/04/26 03:44:17;;;;;;;21.90;15.20;;;;;;;3.43;100.00;101004.09;1723467;82;21155;-89
2021/04/26 03:47:06;;;;;;;20.43;14.03;;;;;;;3.54;100.00;101001.55;1721107;81;21161;-87
2021/04/26 03:49:54;;;;;;;19.82;13.38;;;;;;;3.69;100.00;101002.66;1691838;83;21187;-87
2021/04/26 03:52:42;;;;;;;21.60;14.10;;;;;;;3.79;100.00;101000.96;1688385;83;21157;-88
2021/04/26 03:55:29;;;;;;;24.37;15.25;;;;;;;3.90;100.00;100999.23;1701656;83;21375;-87
2021/04/26 03:57:58;;;;;;;25.02;15.38;;;;;;;4.02;100.00;100999.17;1727506;81;21166;-87
2021/04/26 04:00:28;;;;;;;23.35;14.70;;;;;;;4.21;100.00;100995.80;1682340;83;21576;-89
2021/04/26 04:03:08;;;;;;;20.23;14.17;;;;;;;4.21;100.00;100995.80;1676620;84;21299;-87
2021/04/26 04:05:45;;;;;;;19.20;14.18;;;;;;;4.31;100.00;100997.56;1701292;84;21148;-87
2021/04/26 04:08:32;;;;;;;19.45;13.30;;;;;;;4.41;100.00;100989.36;1708163;83;21599;-88
2021/04/26 04:11:47;;;;;;;20.88;14.47;;;;;;;4.62;100.00;100978.17;1705084;83;21201;-87
2021/04/26 04:14:30;;;;;;;19.12;12.88;;;;;;;4.62;100.00;100978.17;1685496;84;21092;-87
2021/04/26 04:17:52;;;;;;;22.80;15.15;;;;;;;4.76;100.00;100983.55;1678120;85;21219;-88
2021/04/26 04:20:23;;;;;;;19.00;13.53;;;;;;;4.86;100.00;100981.38;1693850;83;21160;-89
2021/04/26 04:22:55;;;;;;;23.27;16.05;;;;;;;4.98;100.00;100978.70;1698999;83;21447;-89
2021/04/26 04:26:06;;;;;;;23.20;14.87;;;;;;;5.16;100.00;100975.73;1809175;78;22754;-88
2021/04/26 04:29:06;;;;;;;20.23;14.78;;;;;;;5.24;100.00;100979.23;1770828;80;20921;-90
2021/04/26 04:32:13;;;;;;;20.72;12.73;;;;;;;5.37;100.00;100976.02;1772828;79;22135;-90
2021/04/26 04:35:23;;;;;;;61.45;15.83;;;;;;;5.59;100.00;100970.27;1875235;76;22219;-89
2021/04/26 04:38:05;;;;;;;35.55;16.45;;;;;;;5.65;100.00;100977.25;1775455;77;21150;-90
2021/04/26 04:40:57;;;;;;;31.77;14.25;;;;;;;5.98;100.00;100982.14;1849432;77;21456;-91
2021/04/26 04:43:33;;;;;;;25.57;15.25;;;;;;;6.33;100.00;100976.13;1844704;77;21731;-90
2021/04/26 04:46:06;;;;;;;18.60;14.30;;;;;;;6.58;100.00;100967.47;1844050;77;21155;-90
2021/04/26 04:48:37;;;;;;;34.98;15.70;;;;;;;6.82;100.00;100968.81;1829048;77;21131;-91
2021/04/26 04:51:08;;;;;;;;;;;;;;;6.97;100.00;100966.69;1848364;77;21484;-91
2021/04/26 04:53:40;;;;;;;31.95;14.90;;;;;;;7.19;100.00;100956.47;1818940;77;22282;-90
2021/04/26 04:56:08;;;;;;;57.95;16.93;;;;;;;7.42;100.00;100958.61;1849238;77;21112;-91
2021/04/26 04:58:40;;;;;;;36.30;16.15;;;;;;;7.61;100.00;100954.95;1844075;77;21092;-90
2021/04/26 05:01:08;;;;;;;36.88;16.05;;;;;;;7.82;100.00;100952.06;1847115;77;21143;-90
2021/04/26 05:04:00;;;;;;;33.23;16.35;;;;;;;8.00;100.00;100947.10;1849127;77;21170;-92
2021/04/26 05:06:47;;;;;;;32.85;15.83;;;;;;;8.24;100.00;100946.56;1848967;77;21551;-91
2021/04/26 05:09:33;;;;;;;28.00;15.43;;;;;;;8.43;100.00;100945.44;1842965;77;21158;-91
2021/04/26 05:12:20;;;;;;;22.75;15.05;;;;;;;8.53;100.00;100940.91;1821243;78;21615;-90
2021/04/26 05:15:18;;;;;;;49.10;17.25;;;;;;;8.56;100.00;100941.22;1825644;77;21151;-90
2021/04/26 05:17:46;;;;;;;22.13;16.10;;;;;;;8.58;100.00;100941.11;1820390;78;21147;-90
2021/04/26 05:20:14;;;;;;;37.93;17.50;;;;;;;8.62;100.00;100936.08;1832156;77;21356;-90
2021/04/26 05:27:06;;;;;;;25.57;16.93;;;;;;;8.86;100.00;100935.03;1847636;77;28291;-90
2021/04/26 05:33:58;;;;;;;22.48;16.37;;;;;;;9.14;100.00;100922.42;1845197;77;22243;-90
2021/04/26 05:41:00;;;;;;;28.12;16.17;;;;;;;9.30;100.00;100916.23;1848658;77;21115;-89
2021/04/26 05:43:29;;;;;;;62.93;17.73;;;;;;;9.42;100.00;100910.70;1823072;77;21154;-88
2021/04/26 05:45:58;;;;;;;32.53;16.37;;;;;;;9.54;100.00;100911.66;1851780;77;21135;-88
2021/04/26 05:48:31;;;;;;;33.35;16.87;;;;;;;9.72;100.00;100905.25;1846871;77;21060;-89
2021/04/26 05:51:00;;;;;;;27.73;16.05;;;;;;;9.88;100.00;100907.64;1851556;77;21474;-90
2021/04/26 05:53:29;;;;;;;27.45;16.82;;;;;;;10.02;100.00;100903.26;1851350;77;21520;-89
2021/04/26 05:56:00;;;;;;;27.37;16.52;;;;;;;10.15;100.00;100907.16;1851084;77;21096;-89
2021/04/26 05:58:29;;;;;;;26.70;17.12;;;;;;;10.27;100.00;100898.52;1830985;77;21468;-89
2021/04/26 06:00:58;;;;;;;71.55;18.42;;;;;;;10.44;100.00;100899.97;1820507;78;21056;-89
2021/04/26 06:03:26;;;;;;;24.35;16.32;;;;;;;10.62;100.00;100904.34;1825291;77;21427;-89
2021/04/26 06:05:56;;;;;;;24.87;15.45;;;;;;;10.79;100.00;100897.95;1821087;77;21198;-89
2021/04/26 06:08:26;;;;;;;30.35;14.58;;;;;;;10.91;100.00;100889.72;1813930;77;21124;-89
2021/04/26 06:10:55;;;;;;;17.55;14.98;;;;;;;11.01;100.00;100892.48;1828396;77;21077;-89
2021/04/26 06:13:26;;;;;;;27.85;15.15;;;;;;;11.07;100.00;100889.42;1836021;77;21179;-89
2021/04/26 06:15:57;;;;;;;21.73;12.93;;;;;;;11.16;100.00;100883.55;1840061;77;21135;-88
2021/04/26 06:18:26;;;;;;;19.02;11.78;;;;;;;11.26;100.00;100879.78;1851244;77;21135;-88
2021/04/26 06:20:54;;;;;;;19.17;10.38;;;;;;;11.34;100.00;100868.80;1850477;77;21123;-89
2021/04/26 06:23:23;;;;;;;19.70;11.05;;;;;;;11.44;100.00;100865.88;1819915;78;21183;-89
2021/04/26 06:25:51;;;;;;;11.80;9.73;;;;;;;11.51;100.00;100864.47;1822167;77;21183;-89
2021/04/26 06:28:22;;;;;;;14.15;9.50;;;;;;;11.58;100.00;100862.20;1806066;78;22355;-89
2021/04/26 06:30:55;;;;;;;16.62;10.10;;;;;;;11.63;100.00;100857.49;1818405;78;21140;-89
2021/04/26 06:33:23;;;;;;;12.50;8.23;;;;;;;11.67;100.00;100861.52;1836127;77;21158;-89
2021/04/26 06:35:54;;;;;;;12.68;7.05;;;;;;;11.76;100.00;100856.09;1829972;77;21120;-88
2021/04/26 06:38:22;;;;;;;11.10;6.33;;;;;;;11.84;92.22;100855.48;1831903;77;21072;-88
2021/04/26 06:40:52;;;;;;;14.05;6.65;;;;;;;11.92;83.09;100854.42;1827871;77;21540;-89
2021/04/26 06:43:20;;;;;;;9.28;6.08;;;;;;;12.05;80.35;100850.42;1824072;77;21183;-89
2021/04/26 06:45:48;;;;;;;11.48;6.85;;;;;;;12.25;77.03;100848.86;1820276;78;21174;-88
2021/04/26 06:48:18;;;;;;;12.00;6.70;;;;;;;12.48;71.69;100853.23;1845261;77;21095;-88
2021/04/26 06:58:46;;;;;;;12.15;7.95;;;;;;;13.16;61.54;100841.22;1823162;77;21158;-87
2021/04/26 07:05:38;;;;;;;12.23;8.53;;;;;;;13.35;60.10;100840.52;1826472;77;21108;-88
2021/04/26 07:12:35;;;;;;;13.13;8.35;;;;;;;13.36;60.99;100835.64;1818720;78;21131;-87
2021/04/26 07:19:27;;;;;;;15.65;10.15;;;;;;;13.54;59.50;100830.21;1818704;78;21107;-87
2021/04/26 07:26:19;;;;;;;15.50;8.90;;;;;;;13.65;61.93;100824.06;1755959;81;21164;-88
2021/04/26 07:33:10;;;;;;;14.70;7.72;;;;;;;13.97;56.99;100816.55;1756240;81;20965;-88
2021/04/26 07:39:43;;;;;;;18.42;9.15;;;;;;;14.07;53.67;100808.72;1815534;79;21436;-88
2021/04/26 07:46:35;;;;;;;14.78;8.93;;;;;;;14.18;50.80;100806.00;1815571;79;21119;-88
2021/04/26 07:53:28;;;;;;;12.28;7.87;;;;;;;14.18;49.76;100801.26;1815526;79;21563;-87
2021/04/26 08:00:22;;;;;;;11.83;7.25;;;;;;;14.23;49.23;100796.90;1827507;77;21415;-87
2021/04/26 08:07:13;;;;;;;7.90;5.30;;;;;;;13.90;48.78;100797.10;1825965;77;21153;-89
2021/04/26 08:14:09;;;;;;;8.10;5.08;;;;;;;13.57;46.84;100788.56;1763114;80;21615;-88
2021/04/26 08:21:00;;;;;;;;;;;;;;;13.46;47.46;100785.56;1750119;81;21206;-88
2021/04/26 08:27:51;;;;;;;8.78;5.37;;;;;;;13.76;47.51;100776.04;1772761;80;21119;-88
2021/04/26 08:30:55;;;;;;;8.40;5.78;;;;;;;13.84;47.36;100781.94;1742820;81;21160;-88
2021/04/26 08:33:24;;;;;;;12.98;5.28;;;;;;;13.83;46.57;100771.92;1773779;80;21211;-90
2021/04/26 08:35:55;;;;;;;9.33;5.03;;;;;;;13.85;47.09;100767.89;1758350;80;22277;-90
2021/04/26 08:38:23;;;;;;;14.30;5.47;;;;;;;13.83;46.41;100762.77;1743910;81;21700;-91
2021/04/26 08:40:52;;;;;;;15.30;4.70;;;;;;;13.79;46.41;100757.93;1774928;80;21053;-91
2021/04/26 08:43:20;;;;;;;9.15;5.25;;;;;;;13.68;45.75;100754.47;1753363;80;21179;-90
2021/04/26 08:45:48;;;;;;;12.35;5.33;;;;;;;13.56;45.04;100752.89;1775177;80;21084;-90
2021/04/26 08:48:23;;;;;;;11.48;5.90;;;;;;;13.43;45.99;100749.68;1781845;80;22006;-90
2021/04/26 08:50:52;;;;;;;8.58;5.10;;;;;;;13.34;46.67;100752.58;1776417;80;21183;-91
2021/04/26 08:53:20;;;;;;;9.13;5.60;;;;;;;13.26;48.28;100751.41;1779843;80;21584;-91
2021/04/26 08:55:49;;;;;;;11.68;5.92;;;;;;;13.19;47.72;100748.16;1779873;80;21572;-91
2021/04/26 08:58:17;;;;;;;14.30;5.70;;;;;;;13.13;47.80;100748.19;1779825;80;21199;-92
2021/04/26 09:00:45;;;;;;;9.78;5.50;;;;;;;13.10;49.89;100743.20;1779531;80;21201;-91
2021/04/26 09:03:14;;;;;;;13.50;6.15;;;;;;;13.09;49.12;100749.41;1779438;80;21239;-91
2021/04/26 09:05:46;;;;;;;9.03;5.90;;;;;;;13.04;48.86;100748.48;1754906;80;21180;-90
2021/04/26 09:08:23;;;;;;;13.08;6.10;;;;;;;12.99;48.60;100745.41;1750844;82;21231;-88
2021/04/26 09:10:55;;;;;;;9.20;5.90;;;;;;;12.94;48.63;100746.28;1749064;82;21169;-91
2021/04/26 09:13:41;;;;;;;14.00;6.65;;;;;;;12.92;49.72;100741.19;1747035;82;22278;-91
2021/04/26 09:16:30;;;;;;;8.43;6.37;;;;;;;12.93;49.63;100742.85;1750909;81;21443;-90
2021/04/26 09:19:06;;;;;;;13.28;7.42;;;;;;;12.93;51.22;100746.77;1750008;80;21192;-91
2021/04/26 09:21:46;;;;;;;10.10;6.90;;;;;;;12.94;50.45;100746.28;1751970;80;21155;-91
2021/04/26 09:24:27;;;;;;;10.10;6.40;;;;;;;12.91;50.98;100744.76;1776575;80;21127;-90
2021/04/26 09:27:06;;;;;;;12.07;7.10;;;;;;;12.88;49.86;100745.00;1782009;80;21367;-90
2021/04/26 09:29:34;;;;;;;11.33;6.35;;;;;;;12.83;51.02;100744.56;1781812;80;21171;-90
2021/04/26 09:32:18;;;;;;;10.90;5.92;;;;;;;12.80;51.10;100742.68;1782125;80;21167;-90
2021/04/26 09:34:51;;;;;;;8.50;6.10;;;;;;;12.75;51.36;100736.53;1780986;80;21076;-90
2021/04/26 09:37:26;;;;;;;16.07;7.85;;;;;;;12.71;52.01;100726.81;1779745;80;21226;-90
2021/04/26 09:40:11;;;;;;;12.50;7.80;;;;;;;12.71;55.07;100725.96;1781189;80;21218;-90
2021/04/26 09:42:55;;;;;;;17.23;8.00;;;;;;;12.69;52.20;100723.48;1779993;80;21128;-91
2021/04/26 09:45:40;;;;;;;14.30;7.35;;;;;;;12.66;55.43;100727.64;1780105;80;21184;-91
2021/04/26 09:48:13;;;;;;;16.45;8.98;;;;;;;12.65;54.37;100716.02;1781757;80;21155;-92
2021/04/26 09:51:05;;;;;;;16.60;8.98;;;;;;;12.59;51.31;100717.35;1777321;80;21563;-91
2021/04/26 09:53:42;;;;;;;15.55;9.10;;;;;;;12.52;52.81;100718.35;1778751;80;21439;-91
2021/04/26 09:56:18;;;;;;;18.82;8.73;;;;;;;12.44;53.84;100716.84;1782261;80;21164;-91
2021/04/26 09:58:58;;;;;;;17.85;7.67;;;;;;;12.39;56.63;100719.83;1782009;80;21156;-90
2021/04/26 10:01:28;;;;;;;;;;;;;;;12.34;59.26;100719.84;1759614;80;21126;-90
2021/04/26 10:08:04;;;;;;;10.18;7.10;;;;;;;12.18;54.97;100717.16;1763836;80;21631;-86
2021/04/26 10:19:02;;;;;;;12.18;6.15;;;;;;;11.87;64.07;100716.13;1751477;82;21120;-86
2021/04/26 10:25:55;;;;;;;8.28;5.47;;;;;;;11.79;72.00;100715.44;1751573;82;21123;-85
2021/04/26 10:33:03;;;;;;;12.95;7.25;;;;;;;11.74;76.05;100717.11;1751496;82;21176;-86
2021/04/26 10:43:29;;;;;;;25.48;6.97;;;;;;;11.67;94.87;100716.75;1801337;79;21119;-87
2021/04/26 10:46:19;;;;;;;11.73;7.08;;;;;;;11.64;97.33;100710.48;1798243;79;21163;-87
2021/04/26 10:49:12;;;;;;;15.87;7.67;;;;;;;11.65;97.48;100713.91;1821807;78;21119;-88
2021/04/26 10:51:40;;;;;;;18.67;7.20;;;;;;;11.62;96.26;100703.25;1830632;78;21155;-91
2021/04/26 10:54:21;;;;;;;10.78;7.90;;;;;;;11.64;98.49;100716.16;1831169;78;21092;-89
2021/04/26 10:56:51;;;;;;;12.95;9.63;;;;;;;11.63;93.39;100719.25;1814175;77;22413;-90
2021/04/26 11:03:43;;;;;;;12.58;9.68;;;;;;;11.49;94.51;100710.38;1809475;79;21148;-88
2021/04/26 13:00:51;;;;;;;11.20;7.25;;;;;;;9.37;100.00;100673.20;1767833;78;21033;-88
2021/04/26 13:03:46;;;;;;;9.45;6.72;;;;;;;9.37;100.00;100668.00;1808366;78;21550;-88
2021/04/26 13:06:36;;;;;;;7.62;5.35;;;;;;;9.35;100.00;100665.16;1799264;78;21235;-90
2021/04/26 13:09:08;;;;;;;9.68;6.87;;;;;;;9.38;100.00;100658.42;1797281;78;21142;-89
2021/04/26 13:11:49;;;;;;;9.20;5.72;;;;;;;9.39;100.00;100654.45;1782546;79;21036;-89
2021/04/26 13:56:34;;;;;;;23.27;10.85;;;;;;;8.94;100.00;100680.86;1769767;79;21604;-88
2021/04/26 13:59:04;;;;;;;21.42;13.88;;;;;;;8.51;100.00;100682.40;1766955;79;21155;-88
2021/04/26 14:01:34;;;;;;;16.20;12.55;;;;;;;8.13;100.00;100683.91;1787169;79;21280;-88
2021/04/26 14:04:02;;;;;;;18.92;14.13;;;;;;;7.83;100.00;100685.40;1802014;78;21257;-87
2021/04/26 14:06:33;;;;;;;21.42;14.78;;;;;;;7.61;100.00;100688.48;1819537;77;21284;-87
2021/04/26 14:09:09;;;;;;;10.78;7.45;;;;;;;7.44;100.00;100698.11;1795875;79;21127;-89
2021/04/26 14:11:45;;;;;;;11.25;6.70;;;;;;;7.21;100.00;100700.81;1750740;79;21105;-90
2021/04/26 14:14:10;;;;;;;7.58;6.33;;;;;;;6.90;100.00;100720.27;1797975;77;21153;-88
2021/04/26 14:16:38;;;;;;;6.78;5.90;;;;;;;6.51;100.00;100719.04;1806279;78;21115;-88
2021/04/26 14:19:06;;;;;;;9.55;7.58;;;;;;;6.23;100.00;100728.33;1813105;77;21193;-89
2021/04/26 14:21:36;;;;;;;10.13;7.50;;;;;;;6.02;100.00;100738.55;1812586;77;21116;-88
2021/04/26 14:24:06;;;;;;;11.90;8.03;;;;;;;5.86;100.00;100740.64;1814583;78;21129;-88
2021/04/26 14:26:34;;;;;;;12.25;6.87;;;;;;;5.71;100.00;100745.33;1802683;77;21119;-87
2021/04/26 14:29:03;;;;;;;21.82;12.82;;;;;;;5.62;100.00;100753.09;1798421;78;21266;-87
2021/04/26 14:31:33;;;;;;;9.67;8.10;;;;;;;5.53;100.00;100756.53;1806418;78;21215;-89
2021/04/26 14:34:02;;;;;;;11.73;8.05;;;;;;;5.43;100.00;100762.25;1799821;78;21538;-88
2021/04/26 14:36:30;;;;;;;9.38;6.60;;;;;;;5.32;100.00;100760.22;1801062;78;21116;-87
2021/04/26 14:38:59;;;;;;;15.98;6.55;;;;;;;5.26;100.00;100756.19;1825947;78;21621;-87
2021/04/26 14:41:27;;;;;;;10.18;8.08;;;;;;;5.21;100.00;100752.55;1792682;78;21570;-87
2021/04/26 14:43:55;;;;;;;7.67;6.17;;;;;;;5.24;100.00;100749.00;1774447;78;21345;-87
2021/04/26 14:46:25;;;;;;;6.65;4.75;;;;;;;5.25;100.00;100752.41;1775893;79;21141;-88
2021/04/26 14:48:54;;;;;;;4.33;3.92;;;;;;;5.27;100.00;100742.37;1790760;79;21141;-87
2021/04/26 14:51:23;;;;;;;7.33;4.10;;;;;;;5.32;100.00;100741.70;1774899;79;21770;-87
2021/04/26 14:53:51;;;;;;;7.25;4.95;;;;;;;5.34;100.00;100739.85;1808501;77;21270;-88
2021/04/26 14:56:21;;;;;;;5.87;3.72;;;;;;;5.45;100.00;100739.30;1765031;79;21207;-88
2021/04/26 14:58:49;;;;;;;5.12;4.62;;;;;;;5.60;100.00;100737.67;1770461;79;21567;-88
2021/04/26 15:01:19;;;;;;;5.40;4.50;;;;;;;5.60;100.00;100742.84;1803008;79;21211;-87
2021/04/26 15:03:48;;;;;;;3.85;3.25;;;;;;;5.62;100.00;100751.80;1784807;79;21042;-87
2021/04/26 15:06:16;;;;;;;6.58;5.92;;;;;;;5.56;100.00;100746.95;1765193;80;21194;-87
2021/04/26 15:08:45;;;;;;;6.80;5.97;;;;;;;5.44;100.00;100767.80;1730110;80;22222;-87
2021/04/26 15:11:15;;;;;;;6.80;6.15;;;;;;;5.44;100.00;100767.80;1737790;81;21119;-87
2021/04/26 15:13:44;;;;;;;5.58;5.05;;;;;;;5.31;100.00;100771.02;1772084;80;21520;-87
2021/04/26 15:16:12;;;;;;;7.05;6.33;;;;;;;5.17;100.00;100763.11;1756420;80;21255;-87
2021/04/26 15:18:41;;;;;;;7.53;4.72;;;;;;;5.01;100.00;100774.19;1774280;80;21116;-87
2021/04/26 15:21:09;;;;;;;5.12;4.65;;;;;;;4.89;100.00;100778.68;1761910;79;22113;-87
2021/04/26 15:23:38;;;;;;;4.10;3.67;;;;;;;4.83;100.00;100778.98;1771726;80;21306;-87
2021/04/26 15:26:06;;;;;;;5.62;3.60;;;;;;;4.75;100.00;100778.05;1765748;80;21135;-87
2021/04/26 15:28:35;;;;;;;5.72;5.22;;;;;;;4.76;100.00;100782.77;1772602;80;21187;-86
2021/04/26 15:31:05;;;;;;;7.15;5.05;;;;;;;4.77;100.00;100778.00;1794468;79;21089;-87
2021/04/26 15:33:34;;;;;;;9.60;3.22;;;;;;;4.79;100.00;100791.64;1756892;80;21563;-87
2021/04/26 15:36:03;;;;;;;6.03;4.10;;;;;;;4.83;100.00;100779.80;1743154;80;21179;-86
2021/04/26 15:38:31;;;;;;;4.08;3.55;;;;;;;4.89;100.00;100796.27;1738356;80;21312;-87
2021/04/26 15:41:01;;;;;;;6.05;3.92;;;;;;;4.90;100.00;100799.70;1738027;80;21189;-86
2021/04/26 15:43:29;;;;;;;4.35;3.35;;;;;;;4.83;100.00;100806.90;1728105;80;21174;-87
2021/04/26 15:45:58;;;;;;;11.30;3.52;;;;;;;4.80;100.00;100810.08;1736588;80;21182;-87
2021/04/26 15:48:27;;;;;;;4.78;3.60;;;;;;;4.81;100.00;100809.17;1747038;80;21182;-89
2021/04/26 15:50:55;;;;;;;8.43;3.08;;;;;;;4.74;100.00;100812.49;1773646;80;21160;-88
2021/04/26 15:53:23;;;;;;;4.67;3.37;;;;;;;4.69;100.00;100807.55;1749765;80;21556;-89
2021/04/26 15:55:52;;;;;;;14.55;2.80;;;;;;;4.73;100.00;100823.72;1755314;80;21108;-89
2021/04/26 15:58:20;;;;;;;3.22;2.92;;;;;;;4.68;100.00;100822.67;1755948;80;21467;-86
2021/04/26 16:00:54;;;;;;;3.15;2.85;;;;;;;4.63;100.00;100822.03;1763433;80;21134;-86
2021/04/26 16:03:22;;;;;;;4.70;3.33;;;;;;;4.58;100.00;100831.27;1749133;80;21163;-86
2021/04/26 16:05:52;;;;;;;5.75;3.67;;;;;;;4.54;100.00;100838.78;1721768;80;21143;-86
2021/04/26 16:08:20;;;;;;;5.35;3.12;;;;;;;4.55;100.00;100838.31;1769997;80;21179;-88
2021/04/26 16:10:49;;;;;;;6.42;4.70;;;;;;;4.54;100.00;100831.05;1720393;80;21146;-87
2021/04/26 16:13:21;;;;;;;6.45;4.83;;;;;;;4.59;100.00;100834.70;1754807;80;21227;-87
2021/04/26 16:15:57;;;;;;;6.28;4.83;;;;;;;4.56;100.00;100833.55;1757900;81;21247;-86
2021/04/26 16:18:29;;;;;;;4.62;3.95;;;;;;;4.57;100.00;100833.47;1742331;80;21239;-87
2021/04/26 16:24:34;;;;;;;4.92;3.40;;;;;;;4.69;100.00;100832.05;1771080;79;22316;-88
2021/04/26 16:27:03;;;;;;;3.87;2.80;;;;;;;4.69;100.00;100832.05;1727743;80;21192;-87
2021/04/26 16:29:32;;;;;;;3.98;3.55;;;;;;;4.69;100.00;100834.64;1752847;80;21133;-88
2021/04/26 16:32:04;;;;;;;4.42;3.10;;;;;;;4.69;100.00;100834.64;1748695;80;21532;-87
2021/04/26 16:34:34;;;;;;;11.05;3.45;;;;;;;4.66;100.00;100845.55;1749951;80;21205;-87
2021/04/26 16:37:02;;;;;;;6.92;2.70;;;;;;;4.65;100.00;100844.73;1747165;80;21540;-89
2021/04/26 16:39:30;;;;;;;7.08;3.25;;;;;;;4.62;100.00;100852.60;1753389;80;21485;-88
2021/04/26 16:41:59;;;;;;;6.72;3.92;;;;;;;4.57;100.00;100856.68;1750564;80;21055;-88
2021/04/26 16:44:28;;;;;;;6.22;3.60;;;;;;;4.57;100.00;100856.68;1747782;80;21161;-88
2021/04/26 16:46:56;;;;;;;8.38;3.72;;;;;;;4.50;100.00;100861.74;1750028;80;21159;-88
2021/04/26 16:49:25;;;;;;;6.20;4.05;;;;;;;4.50;100.00;100861.74;1723607;81;22357;-88
2021/04/26 16:51:54;;;;;;;8.50;5.12;;;;;;;4.52;100.00;100864.27;1752000;80;21190;-88
2021/04/26 16:54:23;;;;;;;5.37;3.87;;;;;;;4.45;100.00;100874.02;1729518;80;21152;-89
2021/04/26 16:56:53;;;;;;;9.53;3.83;;;;;;;4.45;100.00;100874.02;1741435;80;21572;-90
2021/04/26 17:00:05;;;;;;;6.22;4.00;;;;;;;4.23;100.00;100888.31;1726954;80;21151;-88
2021/04/26 17:03:13;;;;;;;3.95;3.00;;;;;;;4.23;100.00;100888.31;1762016;80;21493;-86
2021/04/26 17:05:54;;;;;;;3.10;2.72;;;;;;;4.04;100.00;100881.84;1767467;80;21509;-90
2021/04/26 17:08:22;;;;;;;3.05;2.60;;;;;;;3.89;100.00;100894.48;1752672;80;21211;-91
2021/04/26 17:10:51;;;;;;;3.95;2.95;;;;;;;3.76;100.00;100907.52;1758657;80;21640;-90
2021/04/26 17:13:21;;;;;;;3.80;2.92;;;;;;;3.66;100.00;100905.75;1732469;81;21253;-90
2021/04/26 17:16:24;;;;;;;2.60;2.10;;;;;;;3.55;100.00;100898.94;1758263;80;21362;-90
2021/04/26 17:18:54;;;;;;;3.65;2.87;;;;;;;3.47;100.00;100910.39;1770047;80;21151;-90
2021/04/26 17:21:26;;;;;;;5.60;3.75;;;;;;;3.42;100.00;100909.72;1768071;81;21116;-89
2021/04/26 17:24:03;;;;;;;6.28;3.62;;;;;;;3.37;100.00;100914.23;1759075;80;21230;-88
2021/04/26 17:34:37;;;;;;;3.70;2.90;;;;;;;3.21;100.00;100933.75;1744358;80;21559;-86
2021/04/26 17:37:49;;;;;;;6.15;3.17;;;;;;;3.11;100.00;100936.67;1747219;81;21172;-86
2021/04/26 17:44:22;;;;;;;5.90;3.55;;;;;;;3.02;100.00;100942.17;1739746;81;21740;-86
2021/04/26 17:47:29;;;;;;;6.87;3.60;;;;;;;2.94;100.00;100950.20;1747303;80;21550;-86
2021/04/26 17:57:39;;;;;;;5.05;4.00;;;;;;;2.86;100.00;100962.94;1781354;79;21543;-86
2021/04/26 18:00:30;;;;;;;6.00;4.30;;;;;;;2.81;100.00;100972.11;1791218;78;21146;-86
2021/04/26 18:03:12;;;;;;;5.27;4.47;;;;;;;2.79;100.00;100977.32;1780048;79;22258;-86
2021/04/26 18:09:45;;;;;;;5.80;3.55;;;;;;;2.73;100.00;100977.98;1767788;80;21546;-86
2021/04/26 18:12:36;;;;;;;4.90;3.70;;;;;;;2.67;100.00;100981.64;1772553;79;21132;-86
2021/04/26 18:18:56;;;;;;;5.35;3.85;;;;;;;2.53;100.00;100987.27;1746569;80;21204;-87
2021/04/26 18:21:51;;;;;;;4.08;3.40;;;;;;;2.51;100.00;100982.19;1695767;83;21426;-87
2021/04/26 18:32:01;;;;;;;5.35;4.20;;;;;;;2.33;100.00;100978.97;1742097;80;21155;-88
2021/04/26 18:35:14;;;;;;;5.75;4.67;;;;;;;2.29;100.00;100991.52;1764187;79;21723;-88
2021/04/26 18:41:47;;;;;;;6.97;5.30;;;;;;;2.21;100.00;100973.81;1742507;79;21192;-87
2021/04/26 18:45:15;;;;;;;8.80;5.83;;;;;;;2.17;100.00;100973.51;1772130;79;21208;-87
2021/04/26 18:54:57;;;;;;;5.87;4.25;;;;;;;2.03;100.00;100977.85;1739961;80;21824;-87
2021/04/26 18:57:57;;;;;;;6.75;4.92;;;;;;;1.98;100.00;100992.56;1747876;80;22521;-87
2021/04/26 19:07:51;;;;;;;7.42;4.05;;;;;;;1.90;100.00;100999.25;1774272;79;21165;-86
2021/04/26 19:10:56;;;;;;;5.40;4.15;;;;;;;1.89;100.00;101002.25;1749057;80;21667;-86
2021/04/26 19:17:29;;;;;;;6.03;4.12;;;;;;;1.89;100.00;101008.66;1791657;78;21289;-87
2021/04/26 19:24:03;;;;;;;4.70;3.92;;;;;;;1.87;100.00;101022.45;1795241;79;21150;-87
2021/04/26 19:26:41;;;;;;;5.80;4.67;;;;;;;1.84;100.00;101031.56;1766779;80;21232;-87
2021/04/26 19:33:13;;;;;;;7.58;4.28;;;;;;;1.76;100.00;101042.06;1764268;80;21304;-86
2021/04/26 19:36:05;;;;;;;6.25;4.12;;;;;;;1.69;100.00;101040.58;1766814;80;21152;-86
2021/04/26 19:45:47;;;;;;;8.05;4.75;;;;;;;1.63;100.00;101037.75;1667971;84;21201;-86
2021/04/26 19:56:04;;;;;;;6.62;5.10;;;;;;;1.54;100.00;101053.00;1738085;81;21157;-86
2021/04/26 19:58:49;;;;;;;6.03;4.55;;;;;;;1.53;100.00;101051.32;1732407;81;21444;-86
2021/04/26 20:05:10;;;;;;;5.42;4.50;;;;;;;1.56;100.00;101053.77;1767231;78;21169;-87
2021/04/26 20:07:50;;;;;;;6.70;4.62;;;;;;;1.56;100.00;101056.34;1726540;82;21238;-86
2021/04/26 20:14:22;;;;;;;5.92;4.70;;;;;;;1.56;100.00;101056.34;1752389;80;21234;-87
2021/04/26 20:17:20;;;;;;;5.75;4.53;;;;;;;1.57;100.00;101060.59;1709508;82;21355;-87